Venetia, Pennsylvania
Current Conditions -  °F | °C
As of 6:53 AM on Saturday 20 Dec 2014 (Local Time) from KAGC Reporting Station
Overcast Overcast  
Wind Chill: -6°   Ceiling: 2400
Heat Index: -3°   Visibility: 10mi
Dew Point: -9°   Wind: 5mph
Humidity: 66%   Direction: 50°NE
Pressure: 30.25"   Gusts: NA
Location:  40.25°N, 80.03°W
Report Text: KAGC 201153Z AUTO 05004KT 10SM OVC024 M03/M09 A3025 RMK AO2 SLP264 T10331089 11017 21033 50009 TSNO
Loading
Personal Weather Stations






























Interactive Weather Map New forecast layout! Learn more

10-Day Weather Forecast

Advertisements
Track Severe Weather on mobile